createdAt,value
2019-04-26T00:00:59.082Z,1.10
2019-04-26T00:03:36.282Z,1.20
2019-04-26T00:06:08.988Z,1.37
2019-04-26T00:08:41.589Z,1.03
2019-04-26T00:11:44.597Z,1.00
2019-04-26T00:14:40.403Z,0.93
2019-04-26T00:17:15.506Z,1.10
2019-04-26T00:19:46.804Z,1.30
2019-04-26T00:22:19.090Z,0.90
2019-04-26T00:24:50.464Z,0.80
2019-04-26T00:27:21.592Z,0.90
2019-04-26T00:29:52.776Z,0.97
2019-04-26T00:32:23.805Z,1.10
2019-04-26T00:34:54.824Z,0.90
2019-04-26T00:37:25.844Z,1.00
2019-04-26T00:39:57.296Z,1.03
2019-04-26T00:42:28.677Z,1.20
2019-04-26T00:44:59.761Z,1.10
2019-04-26T00:47:31.552Z,1.10
2019-04-26T00:50:03.547Z,1.40
2019-04-26T00:52:35.096Z,1.20
2019-04-26T00:55:06.554Z,1.20
2019-04-26T00:57:38.024Z,1.30
2019-04-26T01:00:11.997Z,1.20
2019-04-26T01:02:49.715Z,1.23
2019-04-26T01:05:20.971Z,1.00
2019-04-26T01:07:54.143Z,1.20
2019-04-26T01:10:25.880Z,0.90
2019-04-26T01:12:56.880Z,0.80
2019-04-26T01:15:27.870Z,1.00
2019-04-26T01:17:58.853Z,1.10
2019-04-26T01:20:33.092Z,1.33
2019-04-26T01:23:06.816Z,1.10
2019-04-26T01:26:21.142Z,1.33
2019-04-26T01:29:06.149Z,1.10
2019-04-26T01:31:45.829Z,1.33
2019-04-26T01:37:06.364Z,0.90
2019-04-26T01:39:39.838Z,1.03
2019-04-26T01:42:22.228Z,1.07
2019-04-26T01:45:15.479Z,1.20
2019-04-26T01:47:47.915Z,1.13
2019-04-26T01:50:22.456Z,1.60
2019-04-26T01:52:57.088Z,1.50
2019-04-26T01:55:31.346Z,1.20
2019-04-26T01:58:06.949Z,1.40
2019-04-26T02:01:06.159Z,1.60
2019-04-26T02:03:37.325Z,1.27
2019-04-26T02:06:08.729Z,1.23
2019-04-26T02:08:39.757Z,1.10
2019-04-26T02:11:11.082Z,1.67
2019-04-26T02:13:42.431Z,1.33
2019-04-26T02:16:13.465Z,1.37
2019-04-26T02:18:44.818Z,1.20
2019-04-26T02:21:24.614Z,1.20
2019-04-26T02:24:14.520Z,1.37
2019-04-26T02:26:48.405Z,1.10
2019-04-26T02:29:26.820Z,1.30
2019-04-26T02:32:05.580Z,1.63
2019-04-26T02:34:38.541Z,1.40
2019-04-26T02:37:12.386Z,1.17
2019-04-26T02:39:43.959Z,1.70
2019-04-26T02:42:41.403Z,1.20
2019-04-26T02:46:13.264Z,1.60
2019-04-26T02:49:09.848Z,1.47
2019-04-26T02:51:50.958Z,1.60
2019-04-26T02:54:47.423Z,1.77
2019-04-26T02:57:34.362Z,1.23
2019-04-26T03:00:11.496Z,1.67
2019-04-26T03:02:42.945Z,1.50
2019-04-26T03:05:14.341Z,2.30
2019-04-26T03:08:03.322Z,1.80
2019-04-26T03:10:47.265Z,1.93
2019-04-26T03:13:32.944Z,1.60
2019-04-26T03:16:18.329Z,2.20
2019-04-26T03:19:16.771Z,1.73
2019-04-26T03:22:36.626Z,2.00
2019-04-26T03:25:35.173Z,2.27
2019-04-26T03:28:19.516Z,2.00
2019-04-26T03:31:07.327Z,2.20
2019-04-26T03:34:19.161Z,2.37
2019-04-26T03:37:53.712Z,2.00
2019-04-26T03:40:52.649Z,2.90
2019-04-26T03:44:05.386Z,2.00
2019-04-26T03:46:49.740Z,2.50
2019-04-26T03:50:00.937Z,2.20
2019-04-26T03:53:07.449Z,2.57
2019-04-26T03:56:45.567Z,2.63
2019-04-26T03:59:49.811Z,2.47
2019-04-26T04:02:59.002Z,2.80
2019-04-26T04:05:45.578Z,2.37
2019-04-26T04:08:24.202Z,3.07
2019-04-26T04:11:01.915Z,2.70
2019-04-26T04:14:00.420Z,2.80
2019-04-26T04:17:16.856Z,4.20
2019-04-26T04:20:38.316Z,2.70
2019-04-26T04:23:55.971Z,2.67
2019-04-26T04:27:07.531Z,2.40
2019-04-26T04:30:05.687Z,2.47
2019-04-26T04:33:11.621Z,2.53
2019-04-26T04:35:49.672Z,2.67
2019-04-26T04:39:12.205Z,2.77
2019-04-26T04:42:20.305Z,2.40
2019-04-26T04:45:59.230Z,2.77
2019-04-26T04:49:10.616Z,2.00
2019-04-26T04:52:13.400Z,2.80
2019-04-26T04:55:05.081Z,2.30
2019-04-26T04:57:52.576Z,2.50
2019-04-26T05:01:22.632Z,2.00
2019-04-26T05:04:06.539Z,2.23
2019-04-26T05:07:25.328Z,2.10
2019-04-26T05:10:12.838Z,2.90
2019-04-26T05:13:23.150Z,2.30
2019-04-26T05:16:33.359Z,2.53
2019-04-26T05:19:39.367Z,2.53
2019-04-26T05:23:03.611Z,2.80
2019-04-26T05:26:29.400Z,3.10
2019-04-26T05:30:25.440Z,2.23
2019-04-26T05:33:46.131Z,2.33
2019-04-26T05:36:59.491Z,2.27
2019-04-26T05:39:49.197Z,2.20
2019-04-26T05:43:28.424Z,2.60
2019-04-26T05:46:35.162Z,2.17
2019-04-26T05:49:42.455Z,2.33
2019-04-26T05:53:12.142Z,2.13
2019-04-26T05:56:43.363Z,2.10
2019-04-26T05:59:47.930Z,2.07
2019-04-26T06:03:06.872Z,2.30
2019-04-26T06:06:08.677Z,2.10
2019-04-26T06:09:33.366Z,1.60
2019-04-26T06:12:30.393Z,1.87
2019-04-26T06:15:43.601Z,2.20
2019-04-26T06:18:59.717Z,1.87
2019-04-26T06:22:29.181Z,2.00
2019-04-26T06:25:29.493Z,2.43
2019-04-26T06:28:32.155Z,2.27
2019-04-26T06:31:20.519Z,1.90
2019-04-26T06:34:16.232Z,1.90
2019-04-26T06:37:14.117Z,2.30
2019-04-26T06:40:06.448Z,3.20
2019-04-26T06:43:11.187Z,1.80
2019-04-26T06:46:21.475Z,2.20
2019-04-26T06:49:35.065Z,2.73
2019-04-26T06:52:11.736Z,2.17
2019-04-26T06:55:08.483Z,1.80
2019-04-26T06:59:03.478Z,1.70
2019-04-26T07:01:54.546Z,2.60
2019-04-26T07:05:05.588Z,2.00
2019-04-26T07:08:03.298Z,2.87
2019-04-26T07:11:11.736Z,2.23
2019-04-26T07:14:55.409Z,2.10
2019-04-26T07:17:45.152Z,1.70
2019-04-26T07:20:43.127Z,2.40
2019-04-26T07:24:18.000Z,2.60
2019-04-26T07:27:32.270Z,1.97
2019-04-26T07:30:42.631Z,2.20
2019-04-26T07:34:14.127Z,2.00
2019-04-26T07:37:52.690Z,2.60
2019-04-26T07:41:29.011Z,3.27
2019-04-26T07:44:25.506Z,4.00
2019-04-26T07:48:31.041Z,2.57
2019-04-26T07:51:59.629Z,4.00
2019-04-26T07:54:54.163Z,2.93
2019-04-26T07:58:19.847Z,5.40
2019-04-26T08:01:11.944Z,3.20
2019-04-26T08:03:56.840Z,2.33
2019-04-26T08:06:57.257Z,2.37
2019-04-26T08:09:31.689Z,1.97
2019-04-26T08:12:08.417Z,2.50
2019-04-26T08:15:15.670Z,2.03
2019-04-26T08:18:02.306Z,1.63
2019-04-26T08:20:43.810Z,2.70
2019-04-26T08:23:39.177Z,2.30
2019-04-26T08:26:01.345Z,2.70
2019-04-26T08:28:36.234Z,1.83
2019-04-26T08:31:11.461Z,3.13
2019-04-26T08:33:49.814Z,2.10
2019-04-26T08:36:27.146Z,1.77
2019-04-26T08:38:58.407Z,1.50
2019-04-26T08:41:29.850Z,1.63
2019-04-26T08:44:11.276Z,1.57
2019-04-26T08:46:59.387Z,1.50
2019-04-26T08:49:56.111Z,1.37
2019-04-26T08:52:31.449Z,1.43
2019-04-26T08:55:06.108Z,1.97
2019-04-26T08:57:42.365Z,2.10
2019-04-26T09:00:44.530Z,1.57
2019-04-26T09:03:32.724Z,2.37
2019-04-26T09:06:18.928Z,2.07
2019-04-26T09:08:52.254Z,2.23
2019-04-26T09:11:30.161Z,2.40
2019-04-26T09:14:01.393Z,8.83
2019-04-26T09:16:33.799Z,2.60
2019-04-26T09:19:05.207Z,2.47
2019-04-26T09:22:02.817Z,2.40
2019-04-26T09:24:37.167Z,2.53
2019-04-26T09:27:25.828Z,2.30
2019-04-26T09:30:06.228Z,2.50
2019-04-26T09:32:58.223Z,2.50
2019-04-26T09:35:30.423Z,2.60
2019-04-26T09:38:01.422Z,2.20
2019-04-26T09:40:32.609Z,2.60
2019-04-26T09:43:15.237Z,2.20
2019-04-26T09:46:03.878Z,2.80
2019-04-26T09:48:51.829Z,2.47
2019-04-26T09:51:24.019Z,2.67
2019-04-26T09:53:56.043Z,3.50
2019-04-26T09:56:27.133Z,3.37
2019-04-26T09:59:01.447Z,2.93
2019-04-26T10:01:32.792Z,3.67
2019-04-26T10:04:05.128Z,3.80
2019-04-26T10:06:36.189Z,3.30
2019-04-26T10:09:17.286Z,3.17
2019-04-26T10:11:57.735Z,2.60
2019-04-26T10:14:36.642Z,2.50
2019-04-26T10:17:15.548Z,2.67
2019-04-26T10:19:50.317Z,2.43
2019-04-26T10:22:23.073Z,2.80
2019-04-26T10:24:54.148Z,2.40
2019-04-26T10:27:26.134Z,2.50
2019-04-26T10:30:07.395Z,2.13
2019-04-26T10:32:29.771Z,2.53
2019-04-26T10:35:00.765Z,2.87
2019-04-26T10:37:39.335Z,2.80
2019-04-26T10:40:04.920Z,3.80
2019-04-26T10:42:37.546Z,2.47
2019-04-26T10:45:14.387Z,2.60
2019-04-26T10:47:43.312Z,2.70
2019-04-26T10:50:15.531Z,2.23
2019-04-26T10:52:54.373Z,2.37
2019-04-26T10:55:50.214Z,1.70
2019-04-26T10:58:37.805Z,0.90
2019-04-26T11:01:13.252Z,1.10
2019-04-26T11:03:44.559Z,1.20
2019-04-26T11:06:15.701Z,2.37
2019-04-26T11:08:46.755Z,1.10
2019-04-26T11:11:17.846Z,1.20
2019-04-26T11:13:49.161Z,1.00
2019-04-26T11:16:20.412Z,1.10
2019-04-26T11:18:51.749Z,1.17
2019-04-26T11:21:22.811Z,1.00
2019-04-26T11:23:54.082Z,0.90
2019-04-26T11:26:25.071Z,0.90
2019-04-26T11:28:57.214Z,0.80
2019-04-26T11:31:29.279Z,2.00
2019-04-26T11:34:05.342Z,1.30
2019-04-26T11:36:33.053Z,1.30
2019-04-26T11:39:09.401Z,1.00
2019-04-26T11:41:41.334Z,1.07
2019-04-26T11:44:12.514Z,1.00
2019-04-26T11:46:44.879Z,1.93
2019-04-26T11:49:16.529Z,0.90
2019-04-26T11:51:47.503Z,1.90
2019-04-26T11:54:20.779Z,0.80
2019-04-26T11:56:51.244Z,0.70
2019-04-26T11:59:22.261Z,0.60
2019-04-26T12:01:53.303Z,0.60
2019-04-26T12:04:44.953Z,0.63
2019-04-26T12:07:22.608Z,0.70
2019-04-26T12:09:55.237Z,0.63
2019-04-26T12:12:26.263Z,0.63
2019-04-26T12:14:57.350Z,0.60
2019-04-26T12:17:31.163Z,0.70
2019-04-26T12:20:01.026Z,0.60
2019-04-26T12:22:32.013Z,0.70
2019-04-26T12:25:03.434Z,0.60
2019-04-26T12:27:35.892Z,1.83
2019-04-26T12:30:08.131Z,0.60
2019-04-26T12:32:39.200Z,0.50
2019-04-26T12:35:10.347Z,0.50
2019-04-26T12:37:41.411Z,0.50
2019-04-26T12:40:12.893Z,0.90
2019-04-26T12:42:47.330Z,2.00
2019-04-26T12:45:52.461Z,10.30
2019-04-26T12:48:24.867Z,0.50
2019-04-26T12:50:55.943Z,0.80
2019-04-26T12:53:31.467Z,0.70
2019-04-26T12:55:59.837Z,0.60
2019-04-26T12:58:30.840Z,0.60
2019-04-26T13:01:02.205Z,0.60
2019-04-26T13:03:33.335Z,0.60
2019-04-26T13:06:04.362Z,0.50
2019-04-26T13:08:35.544Z,0.50
2019-04-26T13:11:28.113Z,0.60
2019-04-26T13:14:03.743Z,0.60
2019-04-26T13:16:50.649Z,0.60
2019-04-26T13:19:21.638Z,0.70
2019-04-26T13:21:52.734Z,0.50
2019-04-26T13:24:23.741Z,0.60
2019-04-26T13:26:54.841Z,0.63
2019-04-26T13:29:27.298Z,0.50
2019-04-26T13:31:58.730Z,0.50
2019-04-26T13:34:33.348Z,0.60
2019-04-26T13:37:03.270Z,0.50
2019-04-26T13:39:35.081Z,0.60
2019-04-26T13:42:09.415Z,0.50
2019-04-26T13:44:55.232Z,0.50
2019-04-26T13:47:43.835Z,0.50
2019-04-26T13:50:28.350Z,0.50
2019-04-26T13:52:59.487Z,0.60
2019-04-26T13:55:30.535Z,0.60
2019-04-26T13:58:01.997Z,0.60
2019-04-26T14:00:33.325Z,0.50
2019-04-26T14:03:04.513Z,0.53
2019-04-26T14:05:35.637Z,0.50
2019-04-26T14:08:06.705Z,0.50
2019-04-26T14:10:37.680Z,0.50
2019-04-26T14:13:08.661Z,0.50
2019-04-26T14:15:44.044Z,1.00
2019-04-26T14:18:13.632Z,0.50
2019-04-26T14:20:44.713Z,0.60
2019-04-26T14:23:36.779Z,0.40
2019-04-26T14:26:10.285Z,0.50
2019-04-26T14:28:42.157Z,0.50
2019-04-26T14:31:16.456Z,0.50
2019-04-26T14:33:46.349Z,0.43
2019-04-26T14:36:18.539Z,0.50
2019-04-26T14:38:49.822Z,0.60
2019-04-26T14:41:22.485Z,0.60
2019-04-26T14:43:56.695Z,0.60
2019-04-26T14:46:26.683Z,0.60
2019-04-26T14:49:02.089Z,0.60
2019-04-26T14:51:30.355Z,0.50
2019-04-26T14:54:01.395Z,0.60
2019-04-26T14:56:32.430Z,0.70
2019-04-26T14:59:08.027Z,0.70
2019-04-26T15:01:58.769Z,0.80
2019-04-26T15:04:44.989Z,0.70
2019-04-26T15:07:15.989Z,1.20
2019-04-26T15:09:46.975Z,0.60
2019-04-26T15:12:17.952Z,0.57
2019-04-26T15:14:49.390Z,0.57
2019-04-26T15:17:24.845Z,0.67
2019-04-26T15:19:54.623Z,0.53
2019-04-26T15:22:25.641Z,0.70
2019-04-26T15:24:56.641Z,0.90
2019-04-26T15:27:32.227Z,0.60
2019-04-26T15:30:04.152Z,0.93
2019-04-26T15:32:35.336Z,0.60
2019-04-26T15:35:06.833Z,0.90
2019-04-26T15:37:37.975Z,0.97
2019-04-26T15:40:35.078Z,1.00
2019-04-26T15:43:33.826Z,0.80
2019-04-26T15:46:12.492Z,2.00
2019-04-26T15:49:05.749Z,1.00
2019-04-26T15:51:37.376Z,0.80
2019-04-26T15:54:08.436Z,1.20
2019-04-26T15:56:39.470Z,1.10
2019-04-26T15:59:10.443Z,1.00
2019-04-26T16:01:47.529Z,0.90
2019-04-26T16:04:17.382Z,0.93
2019-04-26T16:06:46.829Z,0.87
2019-04-26T16:09:19.741Z,0.90
2019-04-26T16:11:50.701Z,0.90
2019-04-26T16:14:24.884Z,0.90
2019-04-26T16:16:54.339Z,0.90
2019-04-26T16:19:26.660Z,1.00
2019-04-26T16:21:58.050Z,0.80
2019-04-26T16:24:29.199Z,1.20
2019-04-26T16:27:00.253Z,0.83
2019-04-26T16:29:46.830Z,0.90
2019-04-26T16:32:52.625Z,0.97
2019-04-26T16:35:27.992Z,1.13
2019-04-26T16:37:59.816Z,1.00
2019-04-26T16:40:28.476Z,1.00
2019-04-26T16:42:59.822Z,1.30
2019-04-26T16:45:32.673Z,1.10
2019-04-26T16:48:03.641Z,1.40
2019-04-26T16:50:43.777Z,1.20
2019-04-26T16:53:33.674Z,1.60
2019-04-26T16:55:48.867Z,1.30
2019-04-26T16:58:12.916Z,1.20
2019-04-26T17:00:51.584Z,1.00
2019-04-26T17:03:16.882Z,0.93
2019-04-26T17:05:51.117Z,1.30
2019-04-26T17:08:20.873Z,0.80
2019-04-26T17:10:56.338Z,0.90
2019-04-26T17:13:29.816Z,0.90
2019-04-26T17:15:59.901Z,0.73
2019-04-26T17:18:32.326Z,0.90
2019-04-26T17:21:03.582Z,1.00
2019-04-26T17:23:44.561Z,0.70
2019-04-26T17:26:36.716Z,1.10
2019-04-26T17:29:08.024Z,0.70
2019-04-26T17:31:39.155Z,0.70
2019-04-26T17:34:10.276Z,0.80
2019-04-26T17:36:41.326Z,0.80
2019-04-26T17:39:16.942Z,1.07
2019-04-26T17:41:50.661Z,0.70
2019-04-26T17:44:20.374Z,1.00
2019-04-26T17:46:56.346Z,0.83
2019-04-26T17:49:27.375Z,0.90
2019-04-26T17:51:58.010Z,0.90
2019-04-26T17:54:43.785Z,0.80
2019-04-26T17:57:04.335Z,0.90
2019-04-26T17:59:36.827Z,0.93
2019-04-26T18:02:19.795Z,1.00
2019-04-26T18:04:42.464Z,1.23
2019-04-26T18:07:36.294Z,1.00
2019-04-26T18:09:46.853Z,1.40
2019-04-26T18:12:18.117Z,1.10
2019-04-26T18:14:49.171Z,0.97
2019-04-26T18:17:27.739Z,0.70
2019-04-26T18:20:12.970Z,0.90
2019-04-26T18:22:47.837Z,0.83
2019-04-26T18:25:19.101Z,0.80
2019-04-26T18:27:50.165Z,1.00
2019-04-26T18:30:21.683Z,0.80
2019-04-26T18:32:52.740Z,0.90
2019-04-26T18:35:23.804Z,1.20
2019-04-26T18:37:54.853Z,1.13
2019-04-26T18:40:25.961Z,0.93
2019-04-26T18:42:56.984Z,1.23
2019-04-26T18:45:30.033Z,1.33
2019-04-26T18:48:01.952Z,1.40
2019-04-26T18:50:36.499Z,1.00
2019-04-26T18:53:25.212Z,1.30
2019-04-26T18:55:59.332Z,1.20
2019-04-26T18:58:30.293Z,1.30
2019-04-26T19:01:05.213Z,1.30
2019-04-26T19:03:35.531Z,0.93
2019-04-26T19:06:06.569Z,1.00
2019-04-26T19:08:45.802Z,1.20
2019-04-26T19:11:11.858Z,1.00
2019-04-26T19:14:02.146Z,0.80
2019-04-26T19:16:46.351Z,1.20
2019-04-26T19:19:26.020Z,1.00
2019-04-26T19:22:01.558Z,1.00
2019-04-26T19:24:33.319Z,0.90
2019-04-26T19:27:04.365Z,1.10
2019-04-26T19:29:36.304Z,1.20
2019-04-26T19:32:08.001Z,1.13
2019-04-26T19:34:39.115Z,1.20
2019-04-26T19:37:10.169Z,1.30
2019-04-26T19:39:42.745Z,1.50
2019-04-26T19:42:13.970Z,2.20
2019-04-26T19:44:45.119Z,1.93
2019-04-26T19:47:26.801Z,2.23
2019-04-26T19:50:10.185Z,1.80
2019-04-26T19:52:52.945Z,1.80
2019-04-26T19:55:36.999Z,1.70
2019-04-26T19:58:16.153Z,1.80
2019-04-26T20:00:46.700Z,1.53
2019-04-26T20:03:16.947Z,1.80
2019-04-26T20:05:48.293Z,1.90
2019-04-26T20:08:19.458Z,1.77
2019-04-26T20:10:52.099Z,1.53
2019-04-26T20:13:24.045Z,1.57
2019-04-26T20:15:57.310Z,1.17
2019-04-26T20:18:27.862Z,1.10
2019-04-26T20:20:58.981Z,1.20
2019-04-26T20:23:31.702Z,0.90
2019-04-26T20:26:07.155Z,1.10
2019-04-26T20:28:37.450Z,0.97
2019-04-26T20:31:25.378Z,1.00
2019-04-26T20:33:56.562Z,1.10
2019-04-26T20:36:27.565Z,1.00
2019-04-26T20:38:58.684Z,0.90
2019-04-26T20:41:29.702Z,1.10
2019-04-26T20:44:07.038Z,1.00
2019-04-26T20:46:34.366Z,0.80
2019-04-26T20:49:09.086Z,1.10
2019-04-26T20:51:40.755Z,1.07
2019-04-26T20:54:16.214Z,0.90
2019-04-26T20:56:46.202Z,1.40
2019-04-26T20:59:20.178Z,0.97
2019-04-26T21:02:02.718Z,1.00
2019-04-26T21:04:34.931Z,1.20
2019-04-26T21:06:55.443Z,0.93
2019-04-26T21:09:26.544Z,0.97
2019-04-26T21:11:57.541Z,0.90
2019-04-26T21:14:28.653Z,0.90
2019-04-26T21:16:59.774Z,0.90
2019-04-26T21:19:32.750Z,1.00
2019-04-26T21:22:03.757Z,1.00
2019-04-26T21:24:37.124Z,1.00
2019-04-26T21:27:29.345Z,0.93
2019-04-26T21:30:21.525Z,1.00
2019-04-26T21:33:10.815Z,1.10
2019-04-26T21:36:05.829Z,1.30
2019-04-26T21:39:05.862Z,1.33
2019-04-26T21:41:49.388Z,1.00
2019-04-26T21:44:20.372Z,1.23
2019-04-26T21:46:56.267Z,1.13
2019-04-26T21:49:24.366Z,1.23
2019-04-26T21:51:55.589Z,1.33
2019-04-26T21:54:26.566Z,1.20
2019-04-26T21:56:57.582Z,1.67
2019-04-26T21:59:28.753Z,1.53
2019-04-26T22:01:59.929Z,1.67
2019-04-26T22:04:34.169Z,1.60
2019-04-26T22:07:07.598Z,1.60
2019-04-26T22:09:47.916Z,1.70
2019-04-26T22:12:18.918Z,1.93
2019-04-26T22:15:00.680Z,1.97
2019-04-26T22:17:34.815Z,1.63
2019-04-26T22:20:37.704Z,1.63
2019-04-26T22:23:26.042Z,2.20
2019-04-26T22:26:00.072Z,1.77
2019-04-26T22:28:31.292Z,2.50
2019-04-26T22:31:06.878Z,2.40
2019-04-26T22:33:35.741Z,2.23
2019-04-26T22:36:07.226Z,1.60
2019-04-26T22:38:38.366Z,1.80
2019-04-26T22:41:09.355Z,1.80
2019-04-26T22:43:54.013Z,2.07
2019-04-26T22:46:47.283Z,3.10
2019-04-26T22:49:16.074Z,2.20
2019-04-26T22:51:47.183Z,1.50
2019-04-26T22:54:18.212Z,1.50
2019-04-26T22:56:49.354Z,1.67
2019-04-26T22:59:20.507Z,1.90
2019-04-26T23:01:53.412Z,1.70
2019-04-26T23:04:26.503Z,1.60
2019-04-26T23:06:57.054Z,1.50
2019-04-26T23:09:28.132Z,1.93
2019-04-26T23:12:06.399Z,2.17
2019-04-26T23:14:56.447Z,1.77
2019-04-26T23:17:44.006Z,1.80
2019-04-26T23:20:43.035Z,1.90
2019-04-26T23:23:14.165Z,2.10
2019-04-26T23:25:45.177Z,1.77
2019-04-26T23:28:16.151Z,2.10
2019-04-26T23:30:47.306Z,1.53
2019-04-26T23:33:18.283Z,1.57
2019-04-26T23:35:49.386Z,1.67
2019-04-26T23:38:20.368Z,1.50
2019-04-26T23:40:51.532Z,1.93
2019-04-26T23:43:25.532Z,1.40
2019-04-26T23:45:55.528Z,1.80
2019-04-26T23:48:26.673Z,1.73
2019-04-26T23:50:59.918Z,1.83
2019-04-26T23:53:30.305Z,2.50
2019-04-26T23:56:01.289Z,3.87
2019-04-26T23:58:32.251Z,6.00
